Time,TemperatureF,DewpointF,PressureIn,WindDirection,WindDirectionDegrees,WindSpeedMPH,WindSpeedGustMPH,Humidity,HourlyPrecipIn,Conditions,Clouds,dailyrainin,SolarRadiationWatts/m^2,SoftwareType,DateUTC
2013-06-15 00:12:00,68.0,57.0,-100.00,SE,143,4.0,11.0,68,0.00,,,0.00,0.000000,,2013-06-15 05:12:00,
2013-06-15 00:22:00,68.0,57.0,-100.00,SE,143,4.0,11.0,68,0.00,,,0.00,0.000000,,2013-06-15 05:22:00,
2013-06-15 00:34:00,68.0,57.0,-100.00,SE,143,4.0,11.0,68,0.00,,,0.00,0.000000,,2013-06-15 05:34:00,
2013-06-15 00:43:00,68.0,57.0,-100.00,SE,143,4.0,11.0,68,0.00,,,0.00,0.000000,,2013-06-15 05:43:00,
2013-06-15 01:12:00,67.0,58.0,-100.00,ESE,110,4.0,10.0,74,0.00,,,0.00,0.000000,,2013-06-15 06:12:00,
2013-06-15 01:24:00,67.0,58.0,-100.00,ESE,110,4.0,10.0,74,0.00,,,0.00,0.000000,,2013-06-15 06:24:00,
2013-06-15 01:33:00,67.0,58.0,-100.00,ESE,110,4.0,10.0,74,0.00,,,0.00,0.000000,,2013-06-15 06:33:00,
2013-06-15 01:43:00,67.0,58.0,-100.00,ESE,110,4.0,10.0,74,0.00,,,0.00,0.000000,,2013-06-15 06:43:00,
2013-06-15 02:11:00,63.0,62.0,-100.00,ESE,105,4.0,9.0,95,0.21,,,0.21,0.000000,,2013-06-15 07:11:00,
2013-06-15 02:23:00,63.0,62.0,-100.00,ESE,105,4.0,9.0,95,0.21,,,0.21,0.000000,,2013-06-15 07:23:00,
2013-06-15 02:33:00,63.0,62.0,-100.00,ESE,105,4.0,9.0,95,0.21,,,0.21,0.000000,,2013-06-15 07:33:00,
2013-06-15 02:43:00,63.0,62.0,-100.00,ESE,105,4.0,9.0,95,0.21,,,0.21,0.000000,,2013-06-15 07:43:00,
2013-06-15 03:11:00,62.0,60.0,-100.00,South,189,13.0,18.0,94,0.36,,,0.57,0.000000,,2013-06-15 08:11:00,
2013-06-15 03:22:00,62.0,60.0,-100.00,South,189,13.0,18.0,94,0.36,,,0.57,0.000000,,2013-06-15 08:22:00,
2013-06-15 03:33:00,62.0,60.0,-100.00,South,189,13.0,18.0,94,0.36,,,0.57,0.000000,,2013-06-15 08:33:00,
2013-06-15 03:42:00,62.0,60.0,-100.00,South,189,13.0,18.0,94,0.36,,,0.57,0.000000,,2013-06-15 08:42:00,
2013-06-15 04:12:00,62.0,61.0,-100.00,South,185,7.0,18.0,95,0.15,,,-99.99,0.000000,,2013-06-15 09:12:00,
2013-06-15 04:22:00,62.0,61.0,-100.00,South,185,7.0,18.0,95,0.15,,,-99.99,0.000000,,2013-06-15 09:22:00,
2013-06-15 04:33:00,62.0,61.0,-100.00,South,185,7.0,18.0,95,0.15,,,-99.99,0.000000,,2013-06-15 09:33:00,
2013-06-15 04:43:00,62.0,61.0,-100.00,South,185,7.0,18.0,95,0.15,,,-99.99,0.000000,,2013-06-15 09:43:00,
2013-06-15 05:11:00,61.0,59.0,-100.00,SSE,165,5.0,12.0,94,0.07,,,0.79,0.000000,,2013-06-15 10:11:00,
2013-06-15 05:23:00,61.0,59.0,-100.00,SSE,165,5.0,12.0,94,0.07,,,0.79,0.000000,,2013-06-15 10:23:00,
2013-06-15 05:33:00,61.0,59.0,-100.00,SSE,165,5.0,12.0,94,0.07,,,0.79,0.000000,,2013-06-15 10:33:00,
2013-06-15 05:44:00,61.0,59.0,-100.00,SSE,165,5.0,12.0,94,0.07,,,0.79,0.000000,,2013-06-15 10:44:00,
2013-06-15 06:11:00,61.0,60.0,-100.00,South,190,7.0,10.0,97,0.15,,,0.94,0.000000,,2013-06-15 11:11:00,
2013-06-15 06:22:00,61.0,60.0,-100.00,South,190,7.0,10.0,97,0.15,,,0.94,0.000000,,2013-06-15 11:22:00,
2013-06-15 06:33:00,61.0,60.0,-100.00,South,190,7.0,10.0,97,0.15,,,0.94,0.000000,,2013-06-15 11:33:00,
2013-06-15 06:43:00,61.0,60.0,-100.00,South,190,7.0,10.0,97,0.15,,,0.94,0.000000,,2013-06-15 11:43:00,
2013-06-15 07:12:00,61.0,60.0,-100.00,South,183,7.0,11.0,97,0.01,,,0.95,24.000000,,2013-06-15 12:12:00,
2013-06-15 07:22:00,61.0,60.0,-100.00,South,183,7.0,11.0,97,0.01,,,0.95,24.000000,,2013-06-15 12:22:00,
2013-06-15 07:33:00,61.0,60.0,-100.00,South,183,7.0,11.0,97,0.01,,,0.95,24.000000,,2013-06-15 12:33:00,
2013-06-15 07:43:00,61.0,60.0,-100.00,South,183,7.0,11.0,97,0.01,,,0.95,24.000000,,2013-06-15 12:43:00,
2013-06-15 08:11:00,65.0,62.0,-100.00,South,189,6.0,12.0,90,0.00,,,0.95,151.000000,,2013-06-15 13:11:00,
2013-06-15 08:22:00,65.0,62.0,-100.00,South,189,6.0,12.0,90,0.00,,,0.95,151.000000,,2013-06-15 13:22:00,
2013-06-15 08:32:00,65.0,62.0,-100.00,South,189,6.0,12.0,90,0.00,,,0.95,151.000000,,2013-06-15 13:32:00,
2013-06-15 08:43:00,65.0,62.0,-100.00,South,189,6.0,12.0,90,0.00,,,0.95,151.000000,,2013-06-15 13:43:00,
2013-06-15 09:12:00,66.0,61.0,-100.00,SSW,202,9.0,15.0,83,0.00,,,0.95,272.000000,,2013-06-15 14:12:00,
2013-06-15 09:22:00,66.0,61.0,-100.00,SSW,202,9.0,15.0,83,0.00,,,0.95,272.000000,,2013-06-15 14:22:00,
2013-06-15 09:34:00,66.0,61.0,-100.00,SSW,202,9.0,15.0,83,0.00,,,0.95,272.000000,,2013-06-15 14:34:00,
2013-06-15 09:43:00,66.0,61.0,-100.00,SSW,202,9.0,15.0,83,0.00,,,0.95,272.000000,,2013-06-15 14:43:00,
2013-06-15 10:11:00,68.0,62.0,-100.00,SSW,192,7.0,12.0,82,0.00,,,0.95,220.000000,,2013-06-15 15:11:00,
2013-06-15 10:22:00,68.0,62.0,-100.00,SSW,192,7.0,12.0,82,0.00,,,0.95,220.000000,,2013-06-15 15:22:00,
2013-06-15 10:33:00,68.0,62.0,-100.00,SSW,192,7.0,12.0,82,0.00,,,0.95,220.000000,,2013-06-15 15:33:00,
2013-06-15 10:43:00,68.0,62.0,-100.00,SSW,192,7.0,12.0,82,0.00,,,0.95,220.000000,,2013-06-15 15:43:00,
2013-06-15 11:11:00,70.0,63.0,-100.00,SSW,211,7.0,13.0,78,0.01,,,0.96,329.000000,,2013-06-15 16:11:00,
2013-06-15 11:22:00,70.0,63.0,-100.00,SSW,211,7.0,13.0,78,0.01,,,0.96,329.000000,,2013-06-15 16:22:00,
2013-06-15 11:33:00,70.0,63.0,-100.00,SSW,211,7.0,13.0,78,0.01,,,0.96,329.000000,,2013-06-15 16:33:00,
2013-06-15 11:43:00,70.0,63.0,-100.00,SSW,211,7.0,13.0,78,0.01,,,0.96,329.000000,,2013-06-15 16:43:00,
2013-06-15 12:12:00,73.0,63.0,-100.00,SSW,208,8.0,13.0,71,0.00,,,0.96,428.000000,,2013-06-15 17:12:00,
2013-06-15 12:22:00,73.0,63.0,-100.00,SSW,208,8.0,13.0,71,0.00,,,0.96,428.000000,,2013-06-15 17:22:00,
2013-06-15 12:32:00,73.0,63.0,-100.00,SSW,208,8.0,13.0,71,0.00,,,0.96,428.000000,,2013-06-15 17:32:00,
2013-06-15 12:43:00,73.0,63.0,-100.00,SSW,208,8.0,13.0,71,0.00,,,0.96,428.000000,,2013-06-15 17:43:00,
2013-06-15 13:12:00,76.0,64.0,-100.00,SSW,207,9.0,14.0,66,0.00,,,0.96,580.000000,,2013-06-15 18:12:00,
2013-06-15 13:22:00,76.0,64.0,-100.00,SSW,207,9.0,14.0,66,0.00,,,0.96,580.000000,,2013-06-15 18:22:00,
2013-06-15 13:32:00,76.0,64.0,-100.00,SSW,207,9.0,14.0,66,0.00,,,0.96,580.000000,,2013-06-15 18:32:00,
2013-06-15 13:43:00,76.0,64.0,-100.00,SSW,207,9.0,14.0,66,0.00,,,0.96,580.000000,,2013-06-15 18:43:00,
2013-06-15 14:11:00,78.0,67.0,-100.00,SSW,194,7.0,14.0,68,0.00,,,0.96,560.000000,,2013-06-15 19:11:00,
2013-06-15 14:22:00,78.0,67.0,-100.00,SSW,194,7.0,14.0,68,0.00,,,0.96,560.000000,,2013-06-15 19:22:00,
2013-06-15 14:33:00,78.0,67.0,-100.00,SSW,194,7.0,14.0,68,0.00,,,0.96,560.000000,,2013-06-15 19:33:00,
2013-06-15 14:43:00,78.0,67.0,-100.00,SSW,194,7.0,14.0,68,0.00,,,0.96,560.000000,,2013-06-15 19:43:00,
2013-06-15 15:11:00,79.0,66.0,-100.00,SSW,206,10.0,15.0,65,0.00,,,0.96,449.000000,,2013-06-15 20:11:00,
2013-06-15 15:22:00,79.0,66.0,-100.00,SSW,206,10.0,15.0,65,0.00,,,0.96,449.000000,,2013-06-15 20:22:00,
2013-06-15 15:33:00,79.0,66.0,-100.00,SSW,206,10.0,15.0,65,0.00,,,0.96,449.000000,,2013-06-15 20:33:00,
2013-06-15 15:43:00,79.0,66.0,-100.00,SSW,206,10.0,15.0,65,0.00,,,0.96,449.000000,,2013-06-15 20:43:00,
2013-06-15 16:12:00,80.0,66.0,-100.00,SSW,208,10.0,16.0,62,0.00,,,0.96,502.000000,,2013-06-15 21:12:00,
2013-06-15 16:22:00,80.0,66.0,-100.00,SSW,208,10.0,16.0,62,0.00,,,0.96,502.000000,,2013-06-15 21:22:00,
2013-06-15 16:33:00,80.0,66.0,-100.00,SSW,208,10.0,16.0,62,0.00,,,0.96,502.000000,,2013-06-15 21:33:00,
2013-06-15 16:42:00,80.0,66.0,-100.00,SSW,208,10.0,16.0,62,0.00,,,0.96,502.000000,,2013-06-15 21:42:00,
2013-06-15 17:11:00,80.0,66.0,-100.00,SSW,197,5.0,16.0,63,0.00,,,0.96,364.000000,,2013-06-15 22:11:00,
2013-06-15 17:22:00,80.0,66.0,-100.00,SSW,197,5.0,16.0,63,0.00,,,0.96,364.000000,,2013-06-15 22:22:00,
2013-06-15 17:33:00,80.0,66.0,-100.00,SSW,197,5.0,16.0,63,0.00,,,0.96,364.000000,,2013-06-15 22:33:00,
2013-06-15 17:42:00,80.0,66.0,-100.00,SSW,197,5.0,16.0,63,0.00,,,0.96,364.000000,,2013-06-15 22:42:00,
2013-06-15 18:12:00,77.0,66.0,-100.00,SSW,209,5.0,11.0,68,0.00,,,0.96,202.000000,,2013-06-15 23:12:00,
2013-06-15 18:22:00,77.0,66.0,-100.00,SSW,209,5.0,11.0,68,0.00,,,0.96,202.000000,,2013-06-15 23:22:00,
2013-06-15 18:33:00,77.0,66.0,-100.00,SSW,209,5.0,11.0,68,0.00,,,0.96,202.000000,,2013-06-15 23:33:00,
2013-06-15 18:42:00,77.0,66.0,-100.00,SSW,209,5.0,11.0,68,0.00,,,0.96,202.000000,,2013-06-15 23:42:00,
2013-06-15 19:11:00,74.0,67.0,-100.00,WSW,248,2.0,5.0,80,0.00,,,0.96,23.000000,,2013-06-16 00:11:00,
2013-06-15 19:22:00,74.0,67.0,-100.00,WSW,248,2.0,5.0,80,0.00,,,0.96,23.000000,,2013-06-16 00:22:00,
2013-06-15 19:34:00,74.0,67.0,-100.00,WSW,248,2.0,5.0,80,0.00,,,0.96,23.000000,,2013-06-16 00:34:00,
2013-06-15 19:43:00,74.0,67.0,-100.00,WSW,248,2.0,5.0,80,0.00,,,0.96,23.000000,,2013-06-16 00:43:00,
2013-06-15 20:33:00,65.0,64.0,-100.00,NE,37,4.0,21.0,95,0.89,,,1.85,18.000000,,2013-06-16 01:33:00,
2013-06-15 20:42:00,65.0,64.0,-100.00,NE,37,4.0,21.0,95,0.89,,,1.85,18.000000,,2013-06-16 01:42:00,
2013-06-15 21:12:00,66.0,65.0,-100.00,NW,325,5.0,15.0,97,0.24,,,2.09,26.000000,,2013-06-16 02:12:00,
2013-06-15 21:22:00,66.0,65.0,-100.00,NW,325,5.0,15.0,97,0.24,,,2.09,26.000000,,2013-06-16 02:22:00,
2013-06-15 21:33:00,66.0,65.0,-100.00,NW,325,5.0,15.0,97,0.24,,,2.09,26.000000,,2013-06-16 02:33:00,
2013-06-15 21:43:00,66.0,65.0,-100.00,NW,325,5.0,15.0,97,0.24,,,2.09,26.000000,,2013-06-16 02:43:00,
2013-06-15 22:12:00,64.0,63.0,-100.00,SW,231,3.0,6.0,98,0.00,,,2.09,0.000000,,2013-06-16 03:12:00,
2013-06-15 22:22:00,64.0,63.0,-100.00,SW,231,3.0,6.0,98,0.00,,,2.09,0.000000,,2013-06-16 03:22:00,
2013-06-15 22:33:00,64.0,63.0,-100.00,SW,231,3.0,6.0,98,0.00,,,2.09,0.000000,,2013-06-16 03:33:00,
2013-06-15 22:43:00,64.0,63.0,-100.00,SW,231,3.0,6.0,98,0.00,,,2.09,0.000000,,2013-06-16 03:43:00,
2013-06-15 23:12:00,63.0,63.0,-100.00,WSW,258,3.0,6.0,99,0.00,,,2.09,0.000000,,2013-06-16 04:12:00,
2013-06-15 23:23:00,63.0,63.0,-100.00,WSW,258,3.0,6.0,99,0.00,,,2.09,0.000000,,2013-06-16 04:23:00,
2013-06-15 23:33:00,63.0,63.0,-100.00,WSW,258,3.0,6.0,99,0.00,,,2.09,0.000000,,2013-06-16 04:33:00,
2013-06-15 23:42:00,63.0,63.0,-100.00,WSW,258,3.0,6.0,99,0.00,,,2.09,0.000000,,2013-06-16 04:42:00,